Time;durP1;ratioP1;P1;durP2;ratioP2;P2;SDS_P1;SDS_P2;PMS_P1;PMS_P2;Temp;Humidity;BMP_temperature;BMP_pressure;BME280_temperature;BME280_humidity;BME280_pressure;Samples;Min_cycle;Max_cycle;Signal;HPM_P1;HPM_P2
2022/11/26 00:00:39;;;;;;;25.40;8.00;;;;;5.10;102074.00;;;;10460360;28;20198;-75
2022/11/26 00:05:43;;;;;;;17.50;7.23;;;;;5.20;102082.00;;;;10439150;28;20198;-75
2022/11/26 00:10:49;;;;;;;24.30;7.70;;;;;5.20;102078.00;;;;10417897;28;20243;-75
2022/11/26 00:15:51;;;;;;;16.23;6.73;;;;;5.20;102088.00;;;;10459836;28;20557;-75
2022/11/26 00:20:58;;;;;;;26.50;7.30;;;;;5.10;102081.00;;;;10459422;28;20202;-75
2022/11/26 00:26:02;;;;;;;16.00;6.20;;;;;5.20;102102.00;;;;10442807;28;20203;-75
2022/11/26 00:31:10;;;;;;;16.87;7.10;;;;;5.20;102084.00;;;;10442997;28;20185;-75
2022/11/26 00:36:25;;;;;;;25.50;7.17;;;;;5.20;102090.00;;;;10450446;28;21036;-75
2022/11/26 00:41:33;;;;;;;18.10;6.83;;;;;5.30;102075.00;;;;10434009;28;20229;-75
2022/11/26 00:46:35;;;;;;;16.50;7.10;;;;;5.20;102081.00;;;;10401795;28;20256;-76
2022/11/26 00:51:38;;;;;;;14.43;6.87;;;;;5.10;102102.00;;;;10417944;28;20201;-75
2022/11/26 00:56:40;;;;;;;19.80;6.43;;;;;5.00;102113.00;;;;10401950;28;20546;-75
2022/11/26 01:01:42;;;;;;;24.97;7.33;;;;;4.90;102118.00;;;;10417301;28;20214;-75
2022/11/26 01:06:44;;;;;;;17.77;7.10;;;;;4.90;102111.00;;;;10407676;28;20217;-76
2022/11/26 01:11:47;;;;;;;17.07;5.73;;;;;4.70;102121.00;;;;10441959;28;20675;-75
2022/11/26 01:16:55;;;;;;;20.80;6.90;;;;;4.70;102115.00;;;;10426185;28;20267;-75
2022/11/26 01:21:58;;;;;;;18.63;6.10;;;;;4.70;102122.00;;;;10449989;28;20208;-76
2022/11/26 01:26:59;;;;;;;18.93;6.43;;;;;4.80;102133.00;;;;10400709;28;20691;-76
2022/11/26 01:32:01;;;;;;;16.10;6.67;;;;;4.80;102138.00;;;;10435330;28;20194;-75
2022/11/26 01:37:11;;;;;;;12.87;5.90;;;;;4.80;102131.00;;;;10435249;28;20198;-76
2022/11/26 01:42:29;;;;;;;20.17;6.80;;;;;4.70;102122.00;;;;10434861;28;20208;-75
2022/11/26 01:47:32;;;;;;;20.30;6.43;;;;;4.80;102113.00;;;;10418207;28;20205;-75
2022/11/26 01:52:34;;;;;;;14.93;7.00;;;;;4.80;102117.00;;;;10435450;28;20660;-75
2022/11/26 01:57:37;;;;;;;16.47;5.97;;;;;4.90;102129.00;;;;10442783;28;20194;-76
2022/11/26 02:02:40;;;;;;;18.97;6.03;;;;;4.90;102136.00;;;;10410360;28;20268;-77
2022/11/26 02:07:43;;;;;;;17.67;5.87;;;;;4.80;102138.00;;;;10440091;28;20329;-78
2022/11/26 02:12:45;;;;;;;19.23;5.90;;;;;4.80;102134.00;;;;10443533;28;20302;-77
2022/11/26 02:17:59;;;;;;;20.37;5.53;;;;;4.80;102159.00;;;;10469513;28;20221;-78
2022/11/26 02:23:24;;;;;;;15.93;5.87;;;;;4.70;102160.00;;;;10483209;28;20212;-77
2022/11/26 02:28:38;;;;;;;12.80;5.63;;;;;4.60;102165.00;;;;10432052;28;20204;-77
2022/11/26 02:33:43;;;;;;;17.70;5.87;;;;;4.50;102166.00;;;;10443338;28;20709;-78
2022/11/26 02:38:45;;;;;;;15.27;5.60;;;;;4.60;102167.00;;;;10423510;28;20255;-78
2022/11/26 02:43:47;;;;;;;14.67;5.43;;;;;4.60;102166.00;;;;10431123;28;20181;-78
2022/11/26 02:48:51;;;;;;;19.30;5.73;;;;;4.60;102160.00;;;;10431318;28;20197;-77
2022/11/26 02:53:54;;;;;;;25.73;6.27;;;;;4.60;102168.00;;;;10463754;28;20174;-78
2022/11/26 02:58:56;;;;;;;15.50;5.63;;;;;4.60;102164.00;;;;10430569;28;20205;-78
2022/11/26 03:04:04;;;;;;;20.17;6.80;;;;;4.70;102162.00;;;;10442601;28;20224;-78
2022/11/26 03:09:07;;;;;;;14.90;6.33;;;;;4.70;102173.00;;;;10463815;28;20202;-77
2022/11/26 03:14:09;;;;;;;27.50;5.87;;;;;4.70;102171.00;;;;10463790;28;20190;-77
2022/11/26 03:19:11;;;;;;;14.13;4.90;;;;;4.70;102174.00;;;;10446721;28;20213;-77
2022/11/26 03:24:12;;;;;;;17.20;4.80;;;;;4.70;102171.00;;;;10430489;28;20202;-78
2022/11/26 03:29:14;;;;;;;12.60;4.30;;;;;4.70;102168.00;;;;10462405;28;20198;-77
2022/11/26 03:34:16;;;;;;;19.10;5.80;;;;;4.70;102169.00;;;;10420446;28;20431;-77
2022/11/26 03:39:18;;;;;;;16.07;5.13;;;;;4.60;102159.00;;;;10437789;28;20206;-77
2022/11/26 03:44:20;;;;;;;26.83;5.13;;;;;4.60;102169.00;;;;10429370;28;20209;-77
2022/11/26 03:49:22;;;;;;;14.00;4.03;;;;;4.50;102179.00;;;;10445024;28;20200;-77
2022/11/26 03:54:23;;;;;;;26.73;5.47;;;;;4.60;102177.00;;;;10446310;28;20203;-77
2022/11/26 03:59:25;;;;;;;15.93;4.87;;;;;4.50;102184.00;;;;10460728;28;20205;-78
2022/11/26 04:04:28;;;;;;;14.27;4.53;;;;;4.50;102189.00;;;;10461273;28;20193;-77
2022/11/26 04:09:30;;;;;;;11.73;4.17;;;;;4.70;102187.00;;;;10443903;28;20267;-77
2022/11/26 04:14:32;;;;;;;12.27;4.40;;;;;4.70;102191.00;;;;10460462;28;20193;-77
2022/11/26 04:19:34;;;;;;;10.30;3.90;;;;;4.70;102184.00;;;;10455069;28;20209;-77
2022/11/26 04:24:35;;;;;;;12.13;3.60;;;;;4.80;102188.00;;;;10442567;28;20193;-78
2022/11/26 04:29:38;;;;;;;17.07;4.30;;;;;4.90;102188.00;;;;10425556;28;20221;-78
2022/11/26 04:34:40;;;;;;;19.30;5.13;;;;;4.90;102198.00;;;;10429979;28;20298;-77
2022/11/26 04:39:42;;;;;;;18.03;4.10;;;;;4.90;102201.00;;;;10441805;28;20688;-77
2022/11/26 04:44:44;;;;;;;16.80;4.60;;;;;4.90;102201.00;;;;10442001;28;20206;-77
2022/11/26 04:49:46;;;;;;;17.23;3.93;;;;;4.90;102191.00;;;;10441851;28;20833;-77
2022/11/26 04:54:47;;;;;;;14.67;4.20;;;;;4.90;102188.00;;;;10441496;28;20637;-78
2022/11/26 04:59:49;;;;;;;18.70;4.60;;;;;5.00;102194.00;;;;10474299;28;20239;-77
2022/11/26 05:04:51;;;;;;;14.37;4.20;;;;;5.10;102199.00;;;;10460380;28;20656;-78
2022/11/26 05:09:53;;;;;;;18.50;4.80;;;;;5.10;102203.00;;;;10417536;28;20214;-77
2022/11/26 05:14:55;;;;;;;13.43;4.63;;;;;5.00;102208.00;;;;10419613;28;20190;-77
2022/11/26 05:19:57;;;;;;;13.77;3.93;;;;;5.00;102212.00;;;;10492875;28;20209;-77
2022/11/26 05:24:59;;;;;;;21.80;4.40;;;;;5.10;102221.00;;;;10442261;28;20205;-77
2022/11/26 05:30:01;;;;;;;11.93;3.53;;;;;5.10;102226.00;;;;10449094;28;20261;-77
2022/11/26 05:35:04;;;;;;;18.17;4.10;;;;;5.20;102226.00;;;;10450255;28;20198;-77
2022/11/26 05:40:07;;;;;;;14.73;3.63;;;;;5.20;102225.00;;;;10450506;28;20205;-77
2022/11/26 05:45:09;;;;;;;20.83;4.17;;;;;5.20;102231.00;;;;10466811;28;20201;-77
2022/11/26 05:50:11;;;;;;;10.90;4.07;;;;;5.20;102226.00;;;;10482262;28;20247;-77
2022/11/26 05:55:15;;;;;;;13.40;3.47;;;;;5.10;102224.00;;;;10465811;28;20193;-78
2022/11/26 06:00:17;;;;;;;22.23;5.20;;;;;5.00;102228.00;;;;10482616;28;20202;-77
2022/11/26 06:05:19;;;;;;;18.50;4.37;;;;;4.90;102229.00;;;;10465682;28;20289;-78
2022/11/26 06:10:21;;;;;;;13.90;4.47;;;;;4.90;102238.00;;;;10448747;28;20220;-77
2022/11/26 06:15:22;;;;;;;15.30;4.17;;;;;4.80;102234.00;;;;10448920;28;20648;-77
2022/11/26 06:20:24;;;;;;;12.67;3.77;;;;;4.80;102234.00;;;;10448309;28;20791;-77
2022/11/26 06:25:26;;;;;;;11.93;4.07;;;;;4.80;102248.00;;;;10464659;28;20198;-77
2022/11/26 06:30:28;;;;;;;12.87;4.43;;;;;4.90;102256.00;;;;10448327;28;20247;-77
2022/11/26 06:35:30;;;;;;;19.93;5.40;;;;;4.90;102263.00;;;;10464813;28;20576;-77
2022/11/26 06:40:32;;;;;;;8.30;3.93;;;;;4.80;102268.00;;;;10447037;28;20209;-77
2022/11/26 06:45:34;;;;;;;11.43;3.83;;;;;4.70;102263.00;;;;10464353;28;20197;-77
2022/11/26 06:50:36;;;;;;;16.97;4.37;;;;;4.70;102270.00;;;;10447517;28;20533;-77
2022/11/26 06:55:38;;;;;;;13.13;3.50;;;;;4.70;102289.00;;;;10464117;28;20243;-77
2022/11/26 07:00:41;;;;;;;10.20;4.40;;;;;4.70;102287.00;;;;10479968;28;20212;-77
2022/11/26 07:05:43;;;;;;;21.73;5.13;;;;;4.80;102285.00;;;;10409551;28;20793;-77
2022/11/26 07:10:44;;;;;;;15.57;4.43;;;;;4.90;102288.00;;;;10438604;28;20187;-77
2022/11/26 07:15:50;;;;;;;13.90;4.13;;;;;4.80;102296.00;;;;10422775;28;20193;-77
2022/11/26 07:20:51;;;;;;;12.87;4.20;;;;;4.90;102293.00;;;;10437327;28;20285;-77
2022/11/26 07:25:53;;;;;;;16.13;3.93;;;;;4.80;102299.00;;;;10462818;28;20251;-77
2022/11/26 07:31:00;;;;;;;13.27;4.77;;;;;4.80;102301.00;;;;10446294;28;20560;-77
2022/11/26 07:36:05;;;;;;;16.23;5.27;;;;;4.80;102308.00;;;;10454766;28;20267;-77
2022/11/26 07:41:10;;;;;;;16.50;4.50;;;;;4.90;102309.00;;;;10421348;28;20198;-77
2022/11/26 07:46:15;;;;;;;12.33;4.27;;;;;5.00;102302.00;;;;10439329;28;20281;-77
2022/11/26 07:51:23;;;;;;;12.60;3.73;;;;;5.20;102297.00;;;;10444649;28;20660;-77
2022/11/26 07:56:26;;;;;;;18.27;4.73;;;;;5.40;102308.00;;;;10445321;28;20201;-77
2022/11/26 08:01:29;;;;;;;12.13;5.47;;;;;5.70;102305.00;;;;10460946;28;20555;-77
2022/11/26 08:06:31;;;;;;;17.30;4.80;;;;;5.90;102299.00;;;;10477333;28;20215;-77
2022/11/26 08:11:33;;;;;;;11.63;4.53;;;;;6.10;102314.00;;;;10445326;28;20206;-77
2022/11/26 08:16:35;;;;;;;20.17;6.90;;;;;6.30;102321.00;;;;10460157;28;20243;-77
2022/11/26 08:21:38;;;;;;;20.37;6.20;;;;;6.50;102311.00;;;;10438449;28;20680;-77
2022/11/26 08:26:41;;;;;;;20.27;6.90;;;;;6.60;102317.00;;;;10411422;28;20214;-77
2022/11/26 08:31:46;;;;;;;22.10;6.40;;;;;6.70;102323.00;;;;10403165;28;21008;-77
2022/11/26 08:36:48;;;;;;;19.10;6.50;;;;;6.90;102321.00;;;;10408012;28;20195;-77
2022/11/26 08:41:50;;;;;;;19.37;4.83;;;;;7.20;102322.00;;;;10442632;28;20217;-77
2022/11/26 08:46:53;;;;;;;15.17;4.77;;;;;7.50;102319.00;;;;10426492;28;20284;-77
2022/11/26 08:51:55;;;;;;;17.73;4.07;;;;;7.80;102309.00;;;;10442548;28;20185;-77
2022/11/26 08:56:57;;;;;;;17.87;4.20;;;;;8.00;102317.00;;;;10459125;28;20182;-77
2022/11/26 09:01:59;;;;;;;18.87;4.97;;;;;8.40;102316.00;;;;10458774;28;20220;-78
2022/11/26 09:07:01;;;;;;;19.23;4.77;;;;;8.70;102314.00;;;;10466772;28;20226;-78
2022/11/26 09:12:03;;;;;;;17.17;6.20;;;;;9.00;102321.00;;;;10458880;28;20190;-78
2022/11/26 09:17:06;;;;;;;18.17;4.30;;;;;9.30;102332.00;;;;10425863;28;20818;-77
2022/11/26 09:22:08;;;;;;;16.93;4.17;;;;;9.60;102334.00;;;;10422168;28;20217;-77
2022/11/26 09:27:10;;;;;;;23.23;6.87;;;;;9.50;102336.00;;;;10417089;28;20505;-78
2022/11/26 09:32:13;;;;;;;9.23;3.17;;;;;9.60;102319.00;;;;10436449;28;20189;-77
2022/11/26 09:37:26;;;;;;;16.80;4.03;;;;;9.70;102325.00;;;;10408263;28;20207;-78
2022/11/26 09:42:36;;;;;;;15.20;3.43;;;;;9.80;102332.00;;;;10433942;28;20198;-77
2022/11/26 09:47:41;;;;;;;20.23;4.40;;;;;9.90;102339.00;;;;10417600;28;20194;-77
2022/11/26 09:52:52;;;;;;;16.37;3.20;;;;;9.80;102345.00;;;;10433524;28;20194;-77
2022/11/26 09:58:02;;;;;;;15.37;3.70;;;;;9.90;102361.00;;;;10405441;28;20210;-78
2022/11/26 10:03:16;;;;;;;19.17;4.00;;;;;10.20;102353.00;;;;10457751;28;20206;-77
2022/11/26 10:08:47;;;;;;;17.40;3.77;;;;;10.70;102353.00;;;;10450937;28;20206;-78
2022/11/26 10:14:11;;;;;;;15.00;4.33;;;;;10.70;102339.00;;;;10435151;28;20195;-78
2022/11/26 10:19:48;;;;;;;10.97;3.47;;;;;10.90;102343.00;;;;10441323;28;20684;-78
2022/11/26 10:24:50;;;;;;;17.67;3.87;;;;;11.60;102337.00;;;;10438527;28;20200;-78
2022/11/26 10:29:58;;;;;;;11.50;3.33;;;;;11.90;102335.00;;;;10433745;28;20219;-78
2022/11/26 10:34:59;;;;;;;12.47;3.20;;;;;12.20;102329.00;;;;10448505;28;20198;-78
2022/11/26 10:40:25;;;;;;;13.57;3.10;;;;;12.00;102332.00;;;;10471351;28;20201;-78
2022/11/26 10:45:39;;;;;;;14.10;3.40;;;;;11.80;102334.00;;;;10449763;28;20194;-78
2022/11/26 10:50:53;;;;;;;12.87;3.43;;;;;11.60;102342.00;;;;10473224;28;20190;-78
2022/11/26 10:55:59;;;;;;;15.73;3.37;;;;;11.50;102337.00;;;;10430120;28;20198;-78
2022/11/26 11:01:02;;;;;;;12.73;2.97;;;;;11.40;102326.00;;;;10468339;28;20252;-78
2022/11/26 11:06:12;;;;;;;10.57;2.97;;;;;11.40;102325.00;;;;10421511;28;20714;-78
2022/11/26 11:11:23;;;;;;;10.43;3.20;;;;;11.20;102337.00;;;;10453947;28;20190;-78
2022/11/26 11:16:37;;;;;;;9.27;2.60;;;;;11.10;102334.00;;;;10464763;28;20217;-78
2022/11/26 11:21:43;;;;;;;13.63;2.83;;;;;11.20;102323.00;;;;10430492;28;20580;-79
2022/11/26 11:26:54;;;;;;;7.53;2.40;;;;;11.20;102322.00;;;;10420639;28;20583;-78
2022/11/26 11:31:57;;;;;;;11.57;2.90;;;;;11.40;102328.00;;;;10462788;28;20251;-79
2022/11/26 11:37:02;;;;;;;15.77;3.10;;;;;12.00;102306.00;;;;10426585;28;20189;-79
2022/11/26 11:42:27;;;;;;;8.23;2.40;;;;;12.20;102311.00;;;;10436158;28;20208;-79
2022/11/26 11:47:35;;;;;;;10.03;3.30;;;;;12.50;102315.00;;;;10438551;28;20205;-79
2022/11/26 11:52:54;;;;;;;13.77;2.50;;;;;13.00;102298.00;;;;10476601;28;20177;-79
2022/11/26 11:58:20;;;;;;;14.03;3.10;;;;;13.30;102310.00;;;;10444975;28;20201;-79
2022/11/26 12:03:44;;;;;;;30.13;10.17;;;;;13.40;102325.00;;;;10436289;28;20691;-79
2022/11/26 12:09:11;;;;;;;11.90;3.03;;;;;13.10;102336.00;;;;10420267;28;20210;-79
2022/11/26 12:14:34;;;;;;;15.43;2.90;;;;;13.10;102330.00;;;;10444117;28;20197;-79
2022/11/26 12:19:39;;;;;;;11.00;2.67;;;;;12.60;102333.00;;;;10424803;28;20186;-79
2022/11/26 12:24:56;;;;;;;13.47;3.33;;;;;12.40;102322.00;;;;10427274;28;20741;-79
2022/11/26 12:30:10;;;;;;;12.17;2.67;;;;;12.60;102323.00;;;;10460158;28;20186;-80
2022/11/26 12:35:28;;;;;;;8.13;2.70;;;;;13.30;102330.00;;;;10452907;28;20863;-79
2022/11/26 12:40:41;;;;;;;11.63;2.87;;;;;13.40;102331.00;;;;10427534;28;20667;-80
2022/11/26 12:45:45;;;;;;;13.57;2.93;;;;;13.30;102329.00;;;;10429980;28;20265;-80
2022/11/26 12:50:53;;;;;;;12.83;3.13;;;;;13.20;102323.00;;;;10429187;28;20201;-79
2022/11/26 12:56:05;;;;;;;11.47;2.37;;;;;13.00;102319.00;;;;10415854;28;20416;-79
2022/11/26 13:01:09;;;;;;;7.47;2.57;;;;;13.00;102323.00;;;;10450364;28;20202;-79
2022/11/26 13:06:26;;;;;;;10.00;2.40;;;;;13.50;102311.00;;;;10446037;28;20271;-80
2022/11/26 13:12:07;;;;;;;10.25;2.50;;;;;13.40;102304.00;;;;10419027;28;20197;-79
2022/11/26 13:17:14;;;;;;;17.10;3.33;;;;;13.40;102302.00;;;;10349042;28;20217;-79
2022/11/26 13:22:47;;;;;;;6.90;2.13;;;;;13.30;102292.00;;;;10421667;28;20713;-79
2022/11/26 13:27:52;;;;;;;15.30;2.80;;;;;12.90;102281.00;;;;10439105;28;20250;-79
2022/11/26 13:33:19;;;;;;;13.00;2.80;;;;;12.50;102287.00;;;;10423065;28;20657;-80
2022/11/26 13:38:40;;;;;;;11.30;2.57;;;;;12.50;102274.00;;;;10425110;28;20198;-79
2022/11/26 13:44:21;;;;;;;11.40;2.40;;;;;12.70;102269.00;;;;10422117;28;20206;-79
2022/11/26 13:49:43;;;;;;;19.10;3.43;;;;;12.80;102254.00;;;;10429176;28;20194;-79
2022/11/26 13:54:51;;;;;;;16.80;2.20;;;;;12.80;102246.00;;;;10453605;28;20202;-79
2022/11/26 13:59:54;;;;;;;8.20;2.40;;;;;12.70;102238.00;;;;10474340;28;20225;-79
2022/11/26 14:04:56;;;;;;;8.40;2.37;;;;;12.30;102235.00;;;;10432874;28;20206;-79
2022/11/26 14:10:01;;;;;;;14.60;2.90;;;;;12.10;102246.00;;;;10424173;28;20210;-79
2022/11/26 14:15:40;;;;;;;9.70;2.53;;;;;11.80;102231.00;;;;10426929;28;20217;-79
2022/11/26 14:21:01;;;;;;;10.13;2.23;;;;;11.60;102236.00;;;;10451275;28;20206;-79
2022/11/26 14:26:03;;;;;;;11.97;2.77;;;;;11.40;102250.00;;;;10486887;28;20200;-80
2022/11/26 14:31:21;;;;;;;10.30;2.40;;;;;11.20;102245.00;;;;10448610;28;20859;-79
2022/11/26 14:36:25;;;;;;;8.63;2.27;;;;;11.00;102246.00;;;;10438223;28;20197;-79
2022/11/26 14:41:51;;;;;;;7.87;2.40;;;;;10.90;102246.00;;;;10448610;28;20197;-79
2022/11/26 14:46:57;;;;;;;9.83;2.40;;;;;10.70;102238.00;;;;10448147;28;20225;-79
2022/11/26 14:52:00;;;;;;;11.07;2.20;;;;;10.60;102239.00;;;;10464379;28;20671;-79
2022/11/26 14:57:24;;;;;;;9.37;2.27;;;;;10.40;102244.00;;;;10422248;28;20216;-79
2022/11/26 15:02:28;;;;;;;13.57;2.93;;;;;10.10;102250.00;;;;10405900;28;20672;-79
2022/11/26 15:07:30;;;;;;;12.47;2.63;;;;;10.00;102263.00;;;;10412232;28;20259;-79
2022/11/26 15:12:34;;;;;;;6.50;2.57;;;;;9.80;102260.00;;;;10463723;28;20552;-78
2022/11/26 15:17:43;;;;;;;11.67;2.73;;;;;9.50;102253.00;;;;10430731;28;20251;-78
2022/11/26 15:22:53;;;;;;;11.77;2.90;;;;;9.40;102256.00;;;;10432471;28;20203;-78
2022/11/26 15:28:03;;;;;;;16.23;2.83;;;;;9.20;102261.00;;;;10421508;28;20218;-78
2022/11/26 15:33:08;;;;;;;11.70;2.63;;;;;9.10;102268.00;;;;10452087;28;20235;-79
2022/11/26 15:38:14;;;;;;;10.63;2.67;;;;;9.00;102267.00;;;;10421225;28;20561;-78
2022/11/26 15:43:39;;;;;;;11.60;3.40;;;;;8.80;102268.00;;;;10405208;28;20210;-78
2022/11/26 15:48:41;;;;;;;12.70;3.20;;;;;8.70;102263.00;;;;10412183;28;20212;-78
2022/11/26 15:53:57;;;;;;;10.83;3.10;;;;;8.60;102250.00;;;;10427617;28;20260;-79
2022/11/26 15:59:04;;;;;;;14.70;3.13;;;;;8.50;102248.00;;;;10445652;28;20235;-79
2022/11/26 16:04:32;;;;;;;11.20;3.47;;;;;8.40;102250.00;;;;10428821;28;20244;-78
2022/11/26 16:09:33;;;;;;;10.23;3.47;;;;;8.20;102253.00;;;;10477854;28;20216;-78
2022/11/26 16:14:37;;;;;;;15.03;3.77;;;;;8.10;102261.00;;;;10444499;28;20190;-78
2022/11/26 16:19:49;;;;;;;14.50;3.40;;;;;8.10;102255.00;;;;10442225;28;20652;-78
2022/11/26 16:25:17;;;;;;;13.33;3.67;;;;;8.10;102249.00;;;;10444428;28;20213;-78
2022/11/26 16:30:19;;;;;;;20.73;4.63;;;;;8.00;102232.00;;;;10444146;28;20193;-78
2022/11/26 16:35:24;;;;;;;14.80;3.30;;;;;8.00;102235.00;;;;10442229;28;20189;-78
2022/11/26 16:40:46;;;;;;;13.27;3.23;;;;;7.90;102226.00;;;;10432978;28;20205;-78
2022/11/26 16:45:51;;;;;;;15.60;3.40;;;;;7.80;102224.00;;;;10461321;28;20193;-78
2022/11/26 16:50:54;;;;;;;8.30;3.33;;;;;7.80;102225.00;;;;10458939;28;20200;-78
2022/11/26 16:55:56;;;;;;;13.10;3.60;;;;;7.70;102228.00;;;;10443871;28;20198;-79
2022/11/26 17:00:59;;;;;;;17.93;4.00;;;;;7.60;102220.00;;;;10402064;28;20267;-79
2022/11/26 17:06:06;;;;;;;19.40;4.73;;;;;7.50;102228.00;;;;10401696;28;20194;-78
2022/11/26 17:11:12;;;;;;;11.63;3.53;;;;;7.40;102229.00;;;;10417729;28;20190;-78
2022/11/26 17:16:18;;;;;;;10.00;3.93;;;;;7.30;102223.00;;;;10430780;28;20648;-79
2022/11/26 17:21:20;;;;;;;12.73;4.63;;;;;7.20;102218.00;;;;10458831;28;20292;-78
2022/11/26 17:26:22;;;;;;;18.27;5.10;;;;;7.10;102209.00;;;;10458535;28;20193;-79
2022/11/26 17:31:24;;;;;;;11.63;4.47;;;;;7.00;102208.00;;;;10474946;28;20713;-78
2022/11/26 17:36:29;;;;;;;12.90;4.67;;;;;7.00;102196.00;;;;10417144;28;20545;-78
2022/11/26 17:41:37;;;;;;;13.83;4.50;;;;;6.90;102191.00;;;;10385564;28;20206;-78
2022/11/26 17:46:40;;;;;;;14.80;4.27;;;;;6.90;102188.00;;;;10400015;28;20194;-78
2022/11/26 17:52:02;;;;;;;8.63;3.80;;;;;6.80;102182.00;;;;10403409;28;20182;-79
2022/11/26 17:57:04;;;;;;;16.23;4.53;;;;;6.70;102178.00;;;;10416314;28;20202;-78
2022/11/26 18:02:07;;;;;;;17.20;5.10;;;;;6.60;102177.00;;;;10400534;28;20681;-78
2022/11/26 18:07:18;;;;;;;10.30;4.70;;;;;6.60;102170.00;;;;10400350;28;20222;-79
2022/11/26 18:12:23;;;;;;;15.70;5.30;;;;;6.60;102153.00;;;;10449563;28;20660;-78
2022/11/26 18:17:27;;;;;;;10.03;4.80;;;;;6.60;102152.00;;;;10416590;28;20669;-78
2022/11/26 18:22:28;;;;;;;18.87;5.10;;;;;6.60;102149.00;;;;10384011;28;20213;-78
2022/11/26 18:27:30;;;;;;;14.87;5.50;;;;;6.60;102145.00;;;;10423260;28;20205;-78
2022/11/26 18:32:32;;;;;;;14.53;4.50;;;;;6.60;102146.00;;;;10441549;28;20190;-78
2022/11/26 18:37:36;;;;;;;15.00;6.37;;;;;6.50;102142.00;;;;10405301;28;20758;-78
2022/11/26 18:42:38;;;;;;;13.90;6.00;;;;;6.60;102151.00;;;;10440184;28;20202;-78
2022/11/26 18:47:40;;;;;;;11.90;5.63;;;;;6.60;102143.00;;;;10390986;28;20185;-78
2022/11/26 18:52:42;;;;;;;13.20;5.40;;;;;6.60;102136.00;;;;10407440;28;20178;-78
2022/11/26 18:57:44;;;;;;;15.20;6.00;;;;;6.60;102121.00;;;;10422780;28;20673;-78
2022/11/26 19:02:46;;;;;;;15.70;6.17;;;;;6.60;102129.00;;;;10413113;28;20385;-78
2022/11/26 19:07:48;;;;;;;17.70;5.43;;;;;6.60;102118.00;;;;10422624;28;20321;-78
2022/11/26 19:12:49;;;;;;;14.13;4.57;;;;;6.60;102112.00;;;;10439052;28;20650;-79
2022/11/26 19:17:51;;;;;;;18.50;5.43;;;;;6.60;102121.00;;;;10448904;28;20243;-79
2022/11/26 19:22:53;;;;;;;14.20;5.13;;;;;6.60;102130.00;;;;10445885;28;20209;-78
2022/11/26 19:27:55;;;;;;;9.83;5.17;;;;;6.70;102130.00;;;;10446705;28;20197;-78
2022/11/26 19:33:01;;;;;;;12.57;5.07;;;;;6.70;102133.00;;;;10447523;28;20576;-78
2022/11/26 19:38:03;;;;;;;14.30;5.37;;;;;6.70;102120.00;;;;10405217;28;20332;-78
2022/11/26 19:43:05;;;;;;;8.83;4.40;;;;;6.80;102134.00;;;;10405239;28;20236;-78
2022/11/26 19:48:07;;;;;;;13.30;4.70;;;;;6.80;102115.00;;;;10437537;28;20191;-78
2022/11/26 19:53:09;;;;;;;10.30;5.03;;;;;6.80;102122.00;;;;10437568;28;20654;-78
2022/11/26 19:58:11;;;;;;;8.83;4.07;;;;;6.80;102109.00;;;;10420603;28;20202;-78
2022/11/26 20:03:13;;;;;;;8.27;4.33;;;;;6.80;102118.00;;;;10423579;28;20576;-78
2022/11/26 20:08:15;;;;;;;9.40;3.50;;;;;6.80;102130.00;;;;10387563;28;20210;-78
2022/11/26 20:13:17;;;;;;;13.00;4.07;;;;;6.90;102140.00;;;;10420330;28;20190;-78
2022/11/26 20:18:19;;;;;;;8.23;4.00;;;;;6.80;102141.00;;;;10415758;28;20243;-79
2022/11/26 20:23:21;;;;;;;11.87;5.20;;;;;6.80;102151.00;;;;10444071;28;20205;-78
2022/11/26 20:28:23;;;;;;;10.40;3.60;;;;;6.80;102146.00;;;;10444061;28;20216;-78
2022/11/26 20:33:25;;;;;;;12.47;4.30;;;;;6.80;102162.00;;;;10441758;28;20188;-78
2022/11/26 20:38:27;;;;;;;10.53;3.70;;;;;6.80;102161.00;;;;10402906;28;20214;-78
2022/11/26 20:43:29;;;;;;;9.87;3.73;;;;;6.80;102168.00;;;;10418879;28;20210;-78
2022/11/26 20:48:32;;;;;;;13.40;4.63;;;;;6.80;102151.00;;;;10414573;28;20251;-78
2022/11/26 20:53:37;;;;;;;9.10;4.67;;;;;6.80;102128.00;;;;10443234;28;20189;-78
2022/11/26 20:58:40;;;;;;;12.93;4.07;;;;;6.80;102119.00;;;;10458702;28;20202;-78
2022/11/26 21:03:42;;;;;;;8.30;3.63;;;;;6.70;102111.00;;;;10470688;28;20245;-78
2022/11/26 21:08:45;;;;;;;12.03;3.67;;;;;6.70;102105.00;;;;10401394;28;20209;-78
2022/11/26 21:13:47;;;;;;;13.13;4.40;;;;;6.70;102102.00;;;;10385484;28;20252;-78
2022/11/26 21:18:52;;;;;;;8.47;3.90;;;;;6.80;102093.00;;;;10417997;28;20194;-79
2022/11/26 21:23:54;;;;;;;8.80;3.90;;;;;6.80;102074.00;;;;10449386;28;20205;-78
2022/11/26 21:28:58;;;;;;;9.33;3.97;;;;;6.70;102059.00;;;;10442164;28;20206;-79
2022/11/26 21:34:02;;;;;;;9.07;4.07;;;;;6.80;102063.00;;;;10451378;28;20202;-78
2022/11/26 21:39:05;;;;;;;6.70;3.23;;;;;6.80;102066.00;;;;10400922;28;20190;-78
2022/11/26 21:44:07;;;;;;;9.37;2.83;;;;;6.80;102063.00;;;;10458977;28;20205;-78
2022/11/26 21:49:09;;;;;;;9.07;4.27;;;;;6.80;102041.00;;;;10425787;28;20533;-78
2022/11/26 21:54:11;;;;;;;9.60;2.97;;;;;6.80;102024.00;;;;10425773;28;20829;-78
2022/11/26 21:59:14;;;;;;;7.43;3.10;;;;;6.80;102022.00;;;;10425374;28;20197;-78
2022/11/26 22:04:18;;;;;;;11.43;3.43;;;;;6.80;102026.00;;;;10439832;28;20697;-78
2022/11/26 22:09:20;;;;;;;7.77;3.00;;;;;6.80;102019.00;;;;10417332;28;20214;-78
2022/11/26 22:14:22;;;;;;;10.67;3.27;;;;;6.80;102002.00;;;;10424774;28;20187;-79
2022/11/26 22:19:24;;;;;;;10.30;3.20;;;;;6.60;101993.00;;;;10410809;28;20186;-78
2022/11/26 22:24:26;;;;;;;10.77;3.20;;;;;6.60;101994.00;;;;10449248;28;20255;-79
2022/11/26 22:29:28;;;;;;;6.30;2.90;;;;;6.50;101993.00;;;;10432363;28;20214;-78
2022/11/26 22:34:30;;;;;;;7.50;3.30;;;;;6.40;101979.00;;;;10437169;28;20197;-78
2022/11/26 22:39:32;;;;;;;11.10;3.57;;;;;6.40;101990.00;;;;10391068;28;20186;-78
2022/11/26 22:44:34;;;;;;;16.03;3.57;;;;;6.40;101984.00;;;;10430946;28;20221;-78
2022/11/26 22:49:36;;;;;;;6.17;3.17;;;;;6.40;101968.00;;;;10447711;28;20660;-78
2022/11/26 22:54:38;;;;;;;7.13;3.50;;;;;6.40;101971.00;;;;10464264;28;20548;-79
2022/11/26 22:59:40;;;;;;;8.73;3.60;;;;;6.40;101962.00;;;;10463961;28;20194;-78
2022/11/26 23:04:42;;;;;;;10.97;4.40;;;;;6.40;101960.00;;;;10434099;28;20293;-78
2022/11/26 23:09:44;;;;;;;12.67;4.67;;;;;6.40;101949.00;;;;10438634;28;20214;-79
2022/11/26 23:14:48;;;;;;;16.23;4.57;;;;;6.40;101938.00;;;;10429722;28;20288;-79
2022/11/26 23:19:50;;;;;;;9.93;4.40;;;;;6.40;101942.00;;;;10440132;28;20247;-78
2022/11/26 23:24:52;;;;;;;14.77;4.00;;;;;6.30;101948.00;;;;10405933;28;20205;-78
2022/11/26 23:29:53;;;;;;;10.67;4.53;;;;;6.30;101951.00;;;;10421817;28;20186;-78
2022/11/26 23:34:55;;;;;;;12.93;3.70;;;;;6.30;101943.00;;;;10406418;28;20208;-79
2022/11/26 23:39:57;;;;;;;9.53;4.37;;;;;6.30;101932.00;;;;10401708;28;20201;-78
2022/11/26 23:44:59;;;;;;;15.10;4.07;;;;;6.30;101933.00;;;;10445857;28;20259;-79
2022/11/26 23:50:02;;;;;;;13.90;3.77;;;;;6.30;101934.00;;;;10446040;28;20607;-78
2022/11/26 23:55:05;;;;;;;10.30;3.67;;;;;6.40;101923.00;;;;10420891;28;20194;-78
